Time;durP1;ratioP1;P1;durP2;ratioP2;P2;SDS_P1;SDS_P2;PMS_P1;PMS_P2;Temp;Humidity;BMP_temperature;BMP_pressure;BME280_temperature;BME280_humidity;BME280_pressure;Samples;Min_cycle;Max_cycle;Signal;HPM_P1;HPM_P2
2021/08/08 00:00:12;;;;;;;5.35;1.35;;;19.40;81.80;;;;;;5024472;28;20033;-79
2021/08/08 00:02:38;;;;;;;3.65;1.73;;;19.40;81.70;;;;;;5027631;28;20367;-79
2021/08/08 00:05:09;;;;;;;5.30;1.80;;;19.40;81.80;;;;;;5031589;28;20025;-79
2021/08/08 00:07:35;;;;;;;4.18;1.40;;;19.40;81.40;;;;;;5036380;28;20030;-78
2021/08/08 00:10:00;;;;;;;2.20;0.93;;;19.30;81.00;;;;;;5034330;28;20025;-78
2021/08/08 00:12:26;;;;;;;4.45;1.17;;;19.30;81.00;;;;;;5038002;28;20025;-79
2021/08/08 00:14:51;;;;;;;2.72;0.88;;;19.30;81.00;;;;;;5033925;28;20029;-78
2021/08/08 00:17:17;;;;;;;1.77;0.98;;;19.30;81.00;;;;;;5036598;28;20080;-78
2021/08/08 00:19:42;;;;;;;4.57;0.70;;;19.30;80.70;;;;;;5034644;28;20025;-79
2021/08/08 00:22:08;;;;;;;5.43;0.80;;;19.20;80.80;;;;;;5035560;28;20088;-78
2021/08/08 00:24:33;;;;;;;3.70;0.93;;;19.20;80.50;;;;;;5033377;28;20031;-78
2021/08/08 00:26:59;;;;;;;2.00;0.57;;;19.20;80.50;;;;;;5029259;28;20855;-78
2021/08/08 00:29:24;;;;;;;3.45;0.80;;;19.20;80.50;;;;;;5036449;28;20392;-80
2021/08/08 00:31:50;;;;;;;1.15;0.85;;;19.20;80.60;;;;;;5034111;28;20044;-80
2021/08/08 00:34:16;;;;;;;1.77;0.95;;;19.10;80.60;;;;;;5034714;28;20442;-80
2021/08/08 00:36:41;;;;;;;2.03;0.73;;;19.10;80.60;;;;;;5039558;28;20057;-80
2021/08/08 00:39:06;;;;;;;2.53;1.00;;;19.10;80.40;;;;;;5040483;28;20025;-80
2021/08/08 00:41:32;;;;;;;0.90;0.50;;;19.10;80.30;;;;;;5039328;28;20696;-75
2021/08/08 00:43:58;;;;;;;1.50;0.50;;;19.00;80.20;;;;;;5039687;28;20489;-74
2021/08/08 00:46:23;;;;;;;1.65;0.70;;;19.10;80.50;;;;;;5023378;28;20710;-74
2021/08/08 00:48:49;;;;;;;2.20;0.90;;;19.00;80.30;;;;;;5036725;28;20105;-74
2021/08/08 00:51:14;;;;;;;2.55;0.77;;;19.00;80.10;;;;;;5052288;28;20063;-74
2021/08/08 00:53:40;;;;;;;1.80;1.15;;;19.00;80.10;;;;;;5039418;28;20104;-74
2021/08/08 00:56:06;;;;;;;2.03;0.52;;;19.00;80.20;;;;;;5037528;28;20030;-74
2021/08/08 00:58:31;;;;;;;1.20;0.60;;;19.00;79.80;;;;;;5041506;28;20557;-75
2021/08/08 01:01:00;;;;;;;1.63;0.80;;;19.00;79.80;;;;;;5037894;28;20033;-74
2021/08/08 01:03:26;;;;;;;1.33;0.60;;;19.00;80.00;;;;;;5023238;28;20033;-74
2021/08/08 01:06:22;;;;;;;2.08;0.68;;;19.00;79.70;;;;;;5038354;28;20385;-74
2021/08/08 01:08:52;;;;;;;0.88;0.65;;;18.90;79.70;;;;;;5029773;28;20041;-75
2021/08/08 01:11:19;;;;;;;1.08;0.90;;;18.80;80.00;;;;;;5037556;28;20026;-74
2021/08/08 01:13:47;;;;;;;1.98;1.02;;;18.80;80.10;;;;;;5039351;28;20116;-74
2021/08/08 01:16:14;;;;;;;1.85;0.63;;;18.80;80.10;;;;;;5037101;28;20400;-74
2021/08/08 01:18:40;;;;;;;1.55;0.80;;;18.80;80.10;;;;;;5037203;28;20040;-74
2021/08/08 01:21:05;;;;;;;2.00;0.50;;;18.70;80.10;;;;;;5037328;28;20405;-74
2021/08/08 01:23:34;;;;;;;1.65;1.08;;;18.70;79.90;;;;;;5039490;28;20026;-77
2021/08/08 01:26:00;;;;;;;1.73;0.65;;;18.70;79.90;;;;;;5038114;28;20048;-76
2021/08/08 01:28:26;;;;;;;0.85;0.30;;;18.60;80.10;;;;;;5036834;28;20033;-76
2021/08/08 01:30:51;;;;;;;1.98;0.43;;;18.60;79.80;;;;;;5035369;28;20079;-72
2021/08/08 01:33:17;;;;;;;3.72;0.52;;;18.60;79.80;;;;;;5038596;28;20033;-71
2021/08/08 01:35:43;;;;;;;1.70;0.60;;;18.60;79.60;;;;;;5038713;28;20057;-71
2021/08/08 01:38:09;;;;;;;0.85;0.50;;;18.50;79.50;;;;;;5038616;28;20017;-72
2021/08/08 01:40:37;;;;;;;1.88;0.73;;;18.50;79.60;;;;;;5039414;28;20381;-70
2021/08/08 01:43:07;;;;;;;2.40;0.80;;;18.40;79.50;;;;;;5039105;28;20438;-72
2021/08/08 01:45:37;;;;;;;1.10;0.43;;;18.40;79.60;;;;;;5035909;28;20385;-72
2021/08/08 01:48:04;;;;;;;3.20;0.60;;;18.40;79.30;;;;;;5037672;28;20072;-71
2021/08/08 01:50:31;;;;;;;1.08;0.55;;;18.40;78.90;;;;;;5038048;28;20052;-72
2021/08/08 01:53:00;;;;;;;1.83;0.50;;;18.40;79.20;;;;;;5039282;28;20024;-71
2021/08/08 01:55:27;;;;;;;1.75;0.75;;;18.40;79.20;;;;;;5037152;28;20021;-72
2021/08/08 01:57:54;;;;;;;1.00;0.55;;;18.40;79.00;;;;;;5036932;28;20033;-72
2021/08/08 02:00:20;;;;;;;0.98;0.38;;;18.40;78.90;;;;;;5037474;28;20029;-71
2021/08/08 02:02:55;;;;;;;4.68;0.50;;;18.30;78.60;;;;;;5037037;28;20113;-72
2021/08/08 02:05:21;;;;;;;0.82;0.50;;;18.20;78.80;;;;;;5034851;28;20029;-72
2021/08/08 02:07:47;;;;;;;1.40;0.50;;;18.20;79.10;;;;;;5022266;28;20025;-73
2021/08/08 02:10:13;;;;;;;1.38;0.60;;;18.20;79.40;;;;;;5036808;28;20026;-73
2021/08/08 02:12:38;;;;;;;2.30;0.57;;;18.20;79.10;;;;;;5038576;28;20025;-71
2021/08/08 02:15:06;;;;;;;1.67;0.80;;;18.20;79.20;;;;;;5033902;28;20052;-71
2021/08/08 02:17:32;;;;;;;2.63;0.65;;;18.20;79.30;;;;;;5035051;28;20025;-71
2021/08/08 02:19:57;;;;;;;1.00;0.45;;;18.20;79.00;;;;;;5036879;28;20025;-71
2021/08/08 02:22:23;;;;;;;0.80;0.55;;;18.10;79.20;;;;;;5038447;28;20028;-71
2021/08/08 02:24:48;;;;;;;1.38;0.70;;;18.10;79.00;;;;;;5033394;28;20076;-72
2021/08/08 02:27:14;;;;;;;1.58;0.77;;;18.00;79.40;;;;;;5037193;28;20047;-73
2021/08/08 02:29:39;;;;;;;5.25;0.55;;;18.00;79.60;;;;;;5035106;28;20079;-72
2021/08/08 02:32:05;;;;;;;0.88;0.50;;;18.00;79.70;;;;;;5035388;28;20645;-71
2021/08/08 02:34:31;;;;;;;0.70;0.50;;;18.10;79.40;;;;;;5035893;28;20025;-72
2021/08/08 02:36:56;;;;;;;1.58;1.00;;;18.10;79.60;;;;;;5035983;28;20030;-71
2021/08/08 02:39:22;;;;;;;1.00;0.47;;;18.00;79.70;;;;;;5036555;28;20032;-72
2021/08/08 02:41:47;;;;;;;1.50;0.50;;;18.00;79.70;;;;;;5036218;28;20043;-72
2021/08/08 02:44:13;;;;;;;1.13;0.55;;;18.00;79.80;;;;;;5036427;28;20029;-71
2021/08/08 02:46:38;;;;;;;1.52;0.55;;;18.00;79.90;;;;;;5036081;28;20131;-71
2021/08/08 02:49:04;;;;;;;1.00;0.60;;;18.00;80.10;;;;;;5035075;28;20660;-72
2021/08/08 02:51:29;;;;;;;1.60;0.73;;;18.00;79.60;;;;;;5037919;28;20025;-71
2021/08/08 02:53:55;;;;;;;1.15;0.80;;;18.00;79.80;;;;;;5037523;28;20052;-71
2021/08/08 02:56:21;;;;;;;0.50;0.30;;;17.90;79.80;;;;;;5036248;28;20028;-79
2021/08/08 02:58:46;;;;;;;1.77;0.73;;;17.90;80.00;;;;;;5036480;28;20480;-79
2021/08/08 03:01:12;;;;;;;1.48;0.50;;;17.90;80.20;;;;;;5035965;28;20577;-80
2021/08/08 03:03:38;;;;;;;2.90;0.47;;;17.90;80.10;;;;;;5036987;28;20025;-79
2021/08/08 03:06:12;;;;;;;1.60;0.77;;;17.80;80.20;;;;;;5035141;28;20041;-79
2021/08/08 03:08:39;;;;;;;0.75;0.50;;;17.80;80.00;;;;;;5037445;28;20090;-80
2021/08/08 03:11:04;;;;;;;1.15;0.50;;;17.70;80.30;;;;;;5036857;28;20404;-80
2021/08/08 03:13:30;;;;;;;1.17;0.32;;;17.80;80.60;;;;;;5036307;28;20029;-79
2021/08/08 03:15:55;;;;;;;1.55;0.60;;;17.80;80.70;;;;;;5033607;28;20108;-80
2021/08/08 03:18:21;;;;;;;2.72;1.23;;;17.80;80.30;;;;;;5039495;28;20104;-80
2021/08/08 03:20:46;;;;;;;2.72;0.65;;;17.80;80.50;;;;;;5037762;28;20035;-80
2021/08/08 03:23:12;;;;;;;1.55;0.60;;;17.70;81.10;;;;;;5036563;28;20111;-80
2021/08/08 03:25:37;;;;;;;3.40;0.60;;;17.70;80.70;;;;;;5038033;28;20033;-80
2021/08/08 03:28:03;;;;;;;0.65;0.43;;;17.60;80.90;;;;;;5035385;28;20044;-79
2021/08/08 03:30:29;;;;;;;2.88;0.95;;;17.60;81.10;;;;;;5035395;28;20033;-80
2021/08/08 03:32:54;;;;;;;1.08;0.80;;;17.70;80.90;;;;;;5039105;28;20061;-79
2021/08/08 03:35:20;;;;;;;2.30;0.65;;;17.60;80.70;;;;;;5037242;28;20388;-80
2021/08/08 03:37:45;;;;;;;2.95;1.33;;;17.50;80.80;;;;;;5020712;28;20026;-80
2021/08/08 03:40:11;;;;;;;3.92;1.35;;;17.50;81.50;;;;;;5037370;28;20025;-80
2021/08/08 03:42:37;;;;;;;2.08;1.00;;;17.60;81.60;;;;;;5039599;28;20038;-79
2021/08/08 03:45:03;;;;;;;3.05;1.40;;;17.60;81.70;;;;;;5034825;28;20072;-80
2021/08/08 03:47:28;;;;;;;2.50;1.25;;;17.70;82.20;;;;;;5037913;28;20057;-79
2021/08/08 03:49:54;;;;;;;3.30;1.25;;;17.70;81.60;;;;;;5037852;28;20056;-74
2021/08/08 03:52:19;;;;;;;3.05;1.40;;;17.60;81.80;;;;;;5037225;28;20043;-74
2021/08/08 03:54:45;;;;;;;3.30;1.25;;;17.60;81.70;;;;;;5034848;28;20028;-74
2021/08/08 03:57:11;;;;;;;2.50;0.98;;;17.60;81.70;;;;;;5036176;28;20116;-74
2021/08/08 03:59:36;;;;;;;1.65;0.73;;;17.70;81.80;;;;;;5035145;28;20506;-74
2021/08/08 04:02:02;;;;;;;2.63;1.05;;;17.70;81.80;;;;;;5036284;28;20079;-74
2021/08/08 04:04:27;;;;;;;2.35;1.25;;;17.80;81.80;;;;;;5036283;28;20029;-74
2021/08/08 04:06:53;;;;;;;3.45;0.85;;;17.80;81.80;;;;;;5035116;28;20037;-74
2021/08/08 04:09:18;;;;;;;2.55;0.90;;;17.90;81.70;;;;;;5035393;28;20415;-74
2021/08/08 04:11:44;;;;;;;2.17;0.50;;;18.00;81.70;;;;;;5057358;23;20574;-73
2021/08/08 04:14:09;;;;;;;0.73;0.57;;;18.00;81.70;;;;;;5046270;28;20025;-73
2021/08/08 04:16:35;;;;;;;1.13;0.80;;;18.10;81.60;;;;;;5047712;28;20398;-73
2021/08/08 04:19:00;;;;;;;3.75;0.80;;;18.10;81.60;;;;;;5043170;28;20025;-73
2021/08/08 04:21:26;;;;;;;6.13;1.00;;;18.10;81.60;;;;;;5038908;28;20498;-73
2021/08/08 04:23:51;;;;;;;4.25;1.45;;;18.20;81.60;;;;;;5033563;28;20076;-73
2021/08/08 04:26:17;;;;;;;5.32;1.75;;;18.40;81.40;;;;;;5035852;28;20476;-72
2021/08/08 04:28:42;;;;;;;4.00;1.58;;;18.50;81.10;;;;;;5035875;28;20037;-72
2021/08/08 04:31:08;;;;;;;2.78;1.85;;;18.30;80.90;;;;;;5031417;28;20025;-72
2021/08/08 04:33:37;;;;;;;2.90;1.50;;;18.10;81.60;;;;;;5034654;28;20025;-72
2021/08/08 04:36:04;;;;;;;3.65;1.67;;;18.00;81.90;;;;;;5031769;28;20053;-72
2021/08/08 04:38:30;;;;;;;5.97;3.22;;;17.90;82.40;;;;;;5036887;28;20030;-72
2021/08/08 04:40:55;;;;;;;3.00;1.58;;;17.80;82.80;;;;;;5056967;28;20036;-72
2021/08/08 04:43:21;;;;;;;5.90;1.85;;;17.70;83.30;;;;;;5035662;28;20246;-72
2021/08/08 04:45:46;;;;;;;2.63;1.15;;;17.60;83.60;;;;;;5033472;28;20029;-72
2021/08/08 04:48:12;;;;;;;4.30;1.08;;;17.60;84.30;;;;;;5035041;28;20037;-72
2021/08/08 04:50:37;;;;;;;3.63;1.88;;;17.60;84.00;;;;;;5037161;28;20087;-72
2021/08/08 04:53:03;;;;;;;4.75;1.58;;;17.50;84.00;;;;;;5037711;28;20025;-72
2021/08/08 04:55:29;;;;;;;4.15;2.25;;;17.50;84.40;;;;;;5035198;28;20036;-72
2021/08/08 04:57:54;;;;;;;6.13;4.55;;;17.50;84.40;;;;;;5036692;28;20396;-72
2021/08/08 05:00:19;;;;;;;7.00;5.38;;;17.50;84.50;;;;;;5046412;28;20035;-72
2021/08/08 05:02:46;;;;;;;19.40;13.35;;;17.50;84.60;;;;;;5034422;28;20025;-72
2021/08/08 05:05:13;;;;;;;8.82;5.20;;;17.60;84.40;;;;;;5034688;28;20105;-72
2021/08/08 05:07:39;;;;;;;6.00;3.50;;;17.70;84.30;;;;;;5036334;28;20484;-72
2021/08/08 05:10:12;;;;;;;9.70;3.63;;;17.80;84.50;;;;;;5035184;28;20065;-72
2021/08/08 05:12:39;;;;;;;3.35;1.90;;;17.80;83.80;;;;;;5034088;28;20487;-72
2021/08/08 05:15:05;;;;;;;6.65;4.28;;;17.90;83.60;;;;;;5036202;28;20110;-72
2021/08/08 05:17:31;;;;;;;5.20;1.98;;;18.00;83.50;;;;;;5038740;28;20368;-72
2021/08/08 05:19:56;;;;;;;4.85;2.70;;;18.00;83.00;;;;;;5035650;28;20071;-72
2021/08/08 05:22:22;;;;;;;1.02;0.52;;;18.00;82.90;;;;;;5040464;28;20046;-72
2021/08/08 05:24:47;;;;;;;2.50;0.73;;;18.10;83.00;;;;;;5037428;28;20139;-72
2021/08/08 05:27:13;;;;;;;3.30;1.33;;;18.10;83.00;;;;;;5041533;28;20032;-72
2021/08/08 05:29:38;;;;;;;1.90;1.20;;;18.00;82.70;;;;;;5039305;28;20071;-73
2021/08/08 05:32:04;;;;;;;2.83;0.80;;;18.00;83.20;;;;;;5042566;28;20045;-73
2021/08/08 05:34:29;;;;;;;5.10;1.77;;;18.00;82.80;;;;;;5038273;28;20040;-73
2021/08/08 05:36:55;;;;;;;2.70;0.80;;;17.90;82.80;;;;;;5040114;28;20029;-72
2021/08/08 05:39:20;;;;;;;3.63;1.02;;;17.90;83.20;;;;;;5038840;28;20438;-73
2021/08/08 05:41:46;;;;;;;5.53;1.00;;;17.90;83.00;;;;;;5038609;28;20033;-73
2021/08/08 05:44:11;;;;;;;2.55;0.90;;;17.90;83.30;;;;;;5037601;28;20543;-73
2021/08/08 05:46:37;;;;;;;3.88;1.30;;;17.90;83.20;;;;;;5040242;28;20040;-73
2021/08/08 05:49:02;;;;;;;4.22;1.25;;;17.90;83.20;;;;;;5038815;28;20045;-73
2021/08/08 05:51:28;;;;;;;3.50;1.02;;;17.90;83.20;;;;;;5039307;28;20025;-73
2021/08/08 05:53:54;;;;;;;2.22;0.93;;;17.90;83.20;;;;;;5039194;28;20029;-73
2021/08/08 05:56:19;;;;;;;7.88;1.42;;;17.90;83.20;;;;;;5039551;28;20025;-73
2021/08/08 05:58:45;;;;;;;6.50;1.30;;;18.00;83.00;;;;;;5039330;28;20039;-72
2021/08/08 06:01:10;;;;;;;3.25;1.13;;;18.00;82.70;;;;;;5030518;28;20136;-73
2021/08/08 06:03:36;;;;;;;2.80;0.95;;;18.00;82.30;;;;;;5041329;28;20105;-73
2021/08/08 06:06:01;;;;;;;2.17;0.70;;;18.10;82.30;;;;;;5037232;28;20037;-73
2021/08/08 06:08:28;;;;;;;4.40;1.20;;;18.10;82.20;;;;;;5040956;28;20036;-73
2021/08/08 06:10:54;;;;;;;3.63;0.90;;;18.10;81.90;;;;;;5038250;28;20513;-73
2021/08/08 06:13:19;;;;;;;3.63;0.82;;;18.20;81.80;;;;;;5041668;28;20068;-73
2021/08/08 06:15:45;;;;;;;2.17;0.73;;;18.20;81.50;;;;;;5024223;28;20426;-73
2021/08/08 06:18:10;;;;;;;2.35;0.38;;;18.30;81.50;;;;;;5034378;28;20021;-74
2021/08/08 06:20:36;;;;;;;2.35;0.82;;;18.30;81.10;;;;;;5036844;28;20033;-73
2021/08/08 06:23:02;;;;;;;0.85;0.43;;;18.30;81.10;;;;;;5041464;28;20061;-75
2021/08/08 06:25:27;;;;;;;3.78;0.85;;;18.30;81.00;;;;;;5056289;28;20033;-75
2021/08/08 06:27:53;;;;;;;3.13;0.63;;;18.40;80.80;;;;;;5057123;28;20033;-75
2021/08/08 06:30:19;;;;;;;1.20;0.65;;;18.40;80.60;;;;;;5054316;28;20033;-76
2021/08/08 06:32:44;;;;;;;0.98;0.55;;;18.40;80.40;;;;;;5044060;28;20074;-75
2021/08/08 06:35:10;;;;;;;1.38;0.52;;;18.40;80.30;;;;;;5039807;28;20497;-75
2021/08/08 06:37:36;;;;;;;3.42;0.90;;;18.50;80.60;;;;;;5039472;28;20026;-74
2021/08/08 06:40:03;;;;;;;2.60;0.50;;;18.50;80.00;;;;;;5040719;28;20348;-74
2021/08/08 06:42:28;;;;;;;1.42;0.68;;;18.50;80.00;;;;;;5039090;28;20119;-74
2021/08/08 06:44:54;;;;;;;2.35;0.77;;;18.60;79.70;;;;;;5037909;28;20042;-74
2021/08/08 06:47:19;;;;;;;2.72;0.63;;;18.50;79.40;;;;;;5039140;28;20132;-74
2021/08/08 06:49:45;;;;;;;2.35;0.60;;;18.50;79.50;;;;;;5037385;28;20541;-74
2021/08/08 06:52:10;;;;;;;3.65;0.70;;;18.60;79.30;;;;;;5037902;28;20037;-74
2021/08/08 06:54:36;;;;;;;6.25;0.80;;;18.60;78.90;;;;;;5040424;28;20075;-75
2021/08/08 06:57:01;;;;;;;3.85;0.65;;;18.60;79.00;;;;;;5041279;28;20017;-74
2021/08/08 06:59:30;;;;;;;2.88;0.82;;;18.60;78.50;;;;;;5041931;28;20025;-74
2021/08/08 07:01:56;;;;;;;1.50;0.75;;;18.60;78.50;;;;;;5037010;28;20021;-74
2021/08/08 07:04:22;;;;;;;2.25;0.60;;;18.60;78.60;;;;;;5037260;28;20048;-74
2021/08/08 07:06:47;;;;;;;1.73;0.80;;;18.70;78.50;;;;;;5035641;28;20029;-74
2021/08/08 07:09:13;;;;;;;5.93;1.38;;;18.80;78.10;;;;;;5029161;28;20111;-75
2021/08/08 07:11:38;;;;;;;2.25;0.57;;;18.80;78.90;;;;;;5034772;28;20025;-74
2021/08/08 07:14:04;;;;;;;1.92;0.52;;;18.90;77.00;;;;;;5032738;28;20021;-74
2021/08/08 07:16:29;;;;;;;2.53;0.68;;;19.00;76.90;;;;;;5035797;28;20040;-74
2021/08/08 07:18:55;;;;;;;3.45;0.65;;;19.00;77.00;;;;;;5035849;28;20022;-74
2021/08/08 07:21:20;;;;;;;3.35;1.13;;;19.00;76.60;;;;;;5037745;28;20032;-74
2021/08/08 07:23:46;;;;;;;6.70;0.90;;;19.10;75.90;;;;;;5036823;28;20030;-74
2021/08/08 07:26:11;;;;;;;1.67;0.60;;;19.30;74.70;;;;;;5035550;28;20445;-74
2021/08/08 07:28:37;;;;;;;3.67;0.75;;;19.40;75.00;;;;;;5037738;28;20037;-74
2021/08/08 07:31:02;;;;;;;1.65;0.68;;;19.50;74.30;;;;;;5039115;28;20381;-74
2021/08/08 07:33:28;;;;;;;8.50;3.17;;;19.60;73.60;;;;;;5039853;28;20033;-74
2021/08/08 07:35:53;;;;;;;5.28;1.63;;;19.60;73.20;;;;;;5038489;28;20040;-75
2021/08/08 07:38:19;;;;;;;6.88;1.90;;;19.70;72.20;;;;;;5039612;28;20032;-75
2021/08/08 07:40:44;;;;;;;3.10;1.08;;;19.80;71.70;;;;;;5040274;28;20517;-74
2021/08/08 07:43:12;;;;;;;2.78;0.63;;;19.80;71.60;;;;;;5037240;28;20037;-71
2021/08/08 07:45:37;;;;;;;2.15;0.85;;;19.90;71.80;;;;;;5037549;28;20404;-70
2021/08/08 07:48:03;;;;;;;1.77;0.75;;;20.10;71.10;;;;;;5039730;28;20025;-70
2021/08/08 07:50:29;;;;;;;3.20;0.95;;;20.10;71.20;;;;;;5037318;28;20028;-70
2021/08/08 07:52:54;;;;;;;1.25;0.80;;;20.30;70.30;;;;;;5021089;28;20159;-70
2021/08/08 07:55:21;;;;;;;5.32;0.82;;;20.30;70.60;;;;;;5038233;28;20036;-70
2021/08/08 07:57:46;;;;;;;1.98;0.60;;;20.40;69.90;;;;;;5038422;28;20021;-70
2021/08/08 08:00:12;;;;;;;0.88;0.50;;;20.50;70.10;;;;;;5037985;28;20646;-70
2021/08/08 08:02:37;;;;;;;2.90;0.68;;;20.60;69.20;;;;;;5037786;28;20467;-71
2021/08/08 08:05:04;;;;;;;2.28;0.70;;;20.60;69.40;;;;;;5036168;28;20508;-70
2021/08/08 08:07:29;;;;;;;1.67;0.68;;;20.70;68.90;;;;;;5020978;28;20021;-70
2021/08/08 08:09:55;;;;;;;2.15;0.82;;;20.70;68.10;;;;;;5038806;28;20075;-73
2021/08/08 08:12:20;;;;;;;3.83;1.00;;;20.70;68.10;;;;;;5038545;28;20124;-74
2021/08/08 08:14:46;;;;;;;5.00;0.90;;;20.70;67.90;;;;;;5038752;28;20057;-74
2021/08/08 08:17:11;;;;;;;1.95;0.60;;;20.80;67.60;;;;;;5038979;28;20107;-74
2021/08/08 08:19:37;;;;;;;5.53;1.70;;;20.80;67.60;;;;;;5038099;28;20032;-74
2021/08/08 08:22:03;;;;;;;3.47;0.60;;;20.80;67.30;;;;;;5038287;28;20021;-74
2021/08/08 08:24:28;;;;;;;1.27;0.65;;;20.80;67.60;;;;;;5037579;28;20036;-74
2021/08/08 08:26:53;;;;;;;2.75;0.60;;;20.90;67.60;;;;;;5038051;28;20033;-74
2021/08/08 08:29:20;;;;;;;1.88;0.50;;;21.00;66.50;;;;;;5038183;28;20434;-74
2021/08/08 08:31:46;;;;;;;2.70;0.40;;;21.00;66.30;;;;;;5037807;28;20031;-74
2021/08/08 08:34:11;;;;;;;3.80;1.38;;;21.00;65.50;;;;;;5037328;28;20029;-74
2021/08/08 08:36:37;;;;;;;4.10;0.70;;;21.10;64.60;;;;;;5035413;28;20084;-74
2021/08/08 08:39:03;;;;;;;2.38;0.60;;;21.30;64.00;;;;;;5037945;28;20428;-74
2021/08/08 08:41:31;;;;;;;3.13;0.65;;;21.40;63.40;;;;;;5037136;28;20037;-74
2021/08/08 08:43:58;;;;;;;4.68;0.80;;;21.40;62.80;;;;;;5035664;28;20028;-74
2021/08/08 08:46:25;;;;;;;4.82;0.70;;;21.40;63.00;;;;;;5038761;28;20421;-74
2021/08/08 08:48:55;;;;;;;1.98;0.82;;;21.40;63.30;;;;;;5039506;28;20029;-74
2021/08/08 08:51:32;;;;;;;2.75;0.77;;;21.40;63.00;;;;;;5038279;28;20080;-74
2021/08/08 08:54:00;;;;;;;2.38;1.00;;;21.40;62.80;;;;;;5036915;28;20057;-74
2021/08/08 08:56:26;;;;;;;3.92;0.73;;;21.50;62.70;;;;;;5025575;28;20032;-74
2021/08/08 08:58:52;;;;;;;3.60;0.98;;;21.40;63.40;;;;;;5042375;28;20024;-74
2021/08/08 09:01:18;;;;;;;3.75;0.80;;;21.40;63.60;;;;;;5041573;28;20021;-75
2021/08/08 09:03:44;;;;;;;6.43;1.23;;;21.40;63.80;;;;;;5040202;28;20033;-74
2021/08/08 09:06:11;;;;;;;1.40;0.82;;;21.40;63.80;;;;;;5040104;28;20036;-74
2021/08/08 09:08:37;;;;;;;1.70;0.60;;;21.40;63.70;;;;;;5041448;28;20043;-74
2021/08/08 09:11:04;;;;;;;2.30;0.55;;;21.40;63.20;;;;;;5041188;28;20037;-74
2021/08/08 09:13:29;;;;;;;2.28;0.80;;;21.50;63.00;;;;;;5023744;28;20021;-74
2021/08/08 09:15:55;;;;;;;3.55;0.93;;;21.70;62.70;;;;;;5040454;28;20506;-74
2021/08/08 09:18:22;;;;;;;2.83;0.77;;;21.70;62.30;;;;;;5040254;28;20037;-73
2021/08/08 09:20:49;;;;;;;2.97;0.50;;;21.90;62.50;;;;;;5042573;28;20601;-74
2021/08/08 09:23:15;;;;;;;1.85;0.77;;;22.10;61.20;;;;;;5041443;28;20095;-74
2021/08/08 09:25:55;;;;;;;3.55;1.08;;;22.30;61.50;;;;;;5041806;28;20094;-74
2021/08/08 09:28:28;;;;;;;8.15;1.63;;;22.30;60.80;;;;;;5023397;28;20061;-74
2021/08/08 09:30:54;;;;;;;3.28;1.20;;;22.20;60.90;;;;;;5041563;28;20082;-74
2021/08/08 09:33:19;;;;;;;5.00;2.63;;;22.10;61.50;;;;;;5041372;28;20028;-74
2021/08/08 09:35:45;;;;;;;7.72;5.00;;;22.00;62.00;;;;;;5041320;28;20045;-74
2021/08/08 09:38:12;;;;;;;3.88;1.45;;;22.00;61.80;;;;;;5039789;28;20026;-74
2021/08/08 09:40:42;;;;;;;5.13;3.28;;;22.10;61.80;;;;;;5042697;28;20021;-74
2021/08/08 09:43:10;;;;;;;3.45;0.93;;;22.30;62.10;;;;;;5040381;28;20028;-74
2021/08/08 09:45:41;;;;;;;4.10;1.13;;;22.50;60.10;;;;;;5036112;28;20077;-74
2021/08/08 09:48:10;;;;;;;10.52;1.45;;;22.60;59.80;;;;;;5024403;28;20071;-74
2021/08/08 09:50:37;;;;;;;2.13;0.88;;;22.50;59.90;;;;;;5040682;28;20155;-74
2021/08/08 09:53:05;;;;;;;3.80;0.98;;;22.50;60.00;;;;;;5039847;28;20155;-74
2021/08/08 09:55:35;;;;;;;5.85;1.25;;;22.40;59.70;;;;;;5039763;28;20021;-74
2021/08/08 09:58:04;;;;;;;6.78;4.88;;;22.50;59.60;;;;;;5039979;28;20028;-74
2021/08/08 10:00:33;;;;;;;5.47;2.70;;;22.40;59.90;;;;;;5041583;28;20021;-74
2021/08/08 10:03:00;;;;;;;5.85;2.50;;;22.60;59.20;;;;;;5039147;28;20029;-74
2021/08/08 10:05:28;;;;;;;6.15;3.10;;;22.70;58.50;;;;;;5040270;28;20041;-74
2021/08/08 10:07:55;;;;;;;4.72;1.80;;;22.60;58.60;;;;;;5039191;28;20028;-74
2021/08/08 10:10:22;;;;;;;2.40;0.98;;;22.60;58.60;;;;;;5021135;28;20444;-74
2021/08/08 10:13:12;;;;;;;2.50;1.27;;;22.80;59.00;;;;;;5040050;28;20377;-74
2021/08/08 10:15:42;;;;;;;2.47;0.80;;;22.90;58.50;;;;;;5065454;23;20045;-72
2021/08/08 10:18:10;;;;;;;4.43;1.50;;;22.90;58.60;;;;;;5050923;28;20104;-72
2021/08/08 10:20:36;;;;;;;4.03;1.10;;;22.80;58.40;;;;;;5047036;28;20021;-72
2021/08/08 10:23:02;;;;;;;8.07;5.63;;;22.70;59.10;;;;;;5049386;28;20036;-72
2021/08/08 10:25:29;;;;;;;7.35;5.47;;;22.70;59.50;;;;;;5052439;28;20033;-72
2021/08/08 10:27:56;;;;;;;7.38;4.88;;;22.70;59.40;;;;;;5020329;28;20032;-72
2021/08/08 10:30:21;;;;;;;4.68;1.30;;;22.60;59.40;;;;;;5021069;28;20026;-72
2021/08/08 10:32:47;;;;;;;8.13;2.67;;;22.50;59.20;;;;;;5019689;28;20080;-72
2021/08/08 10:35:15;;;;;;;2.88;1.40;;;22.40;59.70;;;;;;5002033;28;20036;-72
2021/08/08 10:37:41;;;;;;;2.33;1.08;;;22.30;59.20;;;;;;5035010;28;20017;-72
2021/08/08 10:40:08;;;;;;;2.05;1.20;;;22.20;58.80;;;;;;5020095;28;20412;-72
2021/08/08 10:42:45;;;;;;;4.50;0.60;;;22.10;58.60;;;;;;5018181;28;20033;-72
2021/08/08 10:45:24;;;;;;;2.65;0.55;;;22.00;58.00;;;;;;5018652;28;20112;-72
2021/08/08 10:47:55;;;;;;;2.72;0.70;;;22.10;58.20;;;;;;5001931;28;20489;-72
2021/08/08 10:50:21;;;;;;;4.25;0.55;;;22.10;58.50;;;;;;5019397;28;20080;-73
2021/08/08 10:52:47;;;;;;;3.05;0.93;;;22.10;58.20;;;;;;5016772;28;20674;-73
2021/08/08 10:55:26;;;;;;;3.03;0.77;;;22.10;58.50;;;;;;5018891;28;20050;-71
2021/08/08 10:57:52;;;;;;;2.83;0.77;;;22.20;58.60;;;;;;5019523;28;20030;-72
2021/08/08 11:00:18;;;;;;;2.53;0.82;;;22.20;58.10;;;;;;5019312;28;20037;-73
2021/08/08 11:02:44;;;;;;;4.65;0.90;;;22.30;57.70;;;;;;5018393;28;20392;-72
2021/08/08 11:05:11;;;;;;;2.85;0.50;;;22.30;57.90;;;;;;5019088;28;20037;-72
2021/08/08 11:07:37;;;;;;;1.55;0.60;;;22.20;58.00;;;;;;5019102;28;20502;-72
2021/08/08 11:10:02;;;;;;;2.78;0.70;;;22.20;58.20;;;;;;5019732;28;20033;-72
2021/08/08 11:12:37;;;;;;;3.30;1.10;;;22.20;58.40;;;;;;5017656;28;20061;-72
2021/08/08 11:15:05;;;;;;;3.37;0.90;;;22.10;57.60;;;;;;5018147;28;20069;-72
2021/08/08 11:17:31;;;;;;;1.92;0.45;;;22.20;57.90;;;;;;5000540;28;20969;-72
2021/08/08 11:19:57;;;;;;;4.43;0.70;;;22.20;57.70;;;;;;5019250;28;20042;-72
2021/08/08 11:22:22;;;;;;;5.82;0.90;;;22.40;57.80;;;;;;5019095;28;20044;-72
2021/08/08 11:25:14;;;;;;;2.30;0.95;;;22.60;57.40;;;;;;5018597;28;20037;-72
2021/08/08 11:27:42;;;;;;;1.33;0.75;;;22.80;57.50;;;;;;5016001;28;20069;-72
2021/08/08 11:30:11;;;;;;;1.13;0.60;;;22.90;57.20;;;;;;5019205;28;20091;-72
2021/08/08 11:32:37;;;;;;;3.08;0.75;;;22.90;56.50;;;;;;5019340;28;20037;-72
2021/08/08 11:35:27;;;;;;;1.20;0.47;;;22.80;56.50;;;;;;5017299;28;20029;-72
2021/08/08 11:37:53;;;;;;;1.55;0.75;;;22.80;56.70;;;;;;5018891;28;20049;-72
2021/08/08 11:40:25;;;;;;;2.10;1.20;;;22.80;57.00;;;;;;5001616;28;20119;-72
2021/08/08 11:42:58;;;;;;;3.83;0.95;;;22.80;56.90;;;;;;5033681;28;20034;-72
2021/08/08 11:45:38;;;;;;;3.88;0.93;;;22.80;56.90;;;;;;5015747;28;20143;-72
2021/08/08 11:48:05;;;;;;;3.97;0.80;;;22.90;57.20;;;;;;5018902;28;20034;-72
2021/08/08 11:50:31;;;;;;;4.78;0.90;;;23.20;56.70;;;;;;5016819;28;20034;-72
2021/08/08 11:52:58;;;;;;;2.92;0.75;;;23.30;56.30;;;;;;5017639;28;20030;-72
2021/08/08 11:55:24;;;;;;;1.90;0.63;;;23.40;55.70;;;;;;5017905;28;20025;-72
2021/08/08 11:57:50;;;;;;;2.40;0.55;;;23.50;55.50;;;;;;5017753;28;20103;-72
2021/08/08 12:00:15;;;;;;;1.25;0.63;;;23.70;55.10;;;;;;5018074;28;20075;-72
2021/08/08 12:02:41;;;;;;;5.50;0.90;;;23.90;54.00;;;;;;5015888;28;20497;-72
2021/08/08 12:05:07;;;;;;;1.83;0.50;;;24.10;54.50;;;;;;5018297;28;20456;-72
2021/08/08 12:07:33;;;;;;;2.13;0.68;;;24.20;54.20;;;;;;5019056;28;20546;-73
2021/08/08 12:09:59;;;;;;;0.60;0.40;;;24.30;53.60;;;;;;5019308;28;20065;-72
2021/08/08 12:12:37;;;;;;;1.52;0.70;;;24.20;54.10;;;;;;5018654;28;20029;-72
2021/08/08 12:15:07;;;;;;;3.70;0.73;;;24.00;54.40;;;;;;4999903;28;20030;-72
2021/08/08 12:17:33;;;;;;;3.22;0.82;;;23.70;54.60;;;;;;5018612;28;20036;-72
2021/08/08 12:20:11;;;;;;;2.40;0.80;;;23.40;55.30;;;;;;5016015;28;20033;-72
2021/08/08 12:22:37;;;;;;;1.67;0.82;;;23.20;56.00;;;;;;5018160;28;20030;-72
2021/08/08 12:25:05;;;;;;;3.10;0.95;;;23.00;56.30;;;;;;5018191;28;20108;-72
2021/08/08 12:27:33;;;;;;;2.83;0.73;;;22.80;56.70;;;;;;5000894;28;20022;-72
2021/08/08 12:30:00;;;;;;;1.77;0.93;;;22.70;56.70;;;;;;5019312;28;20492;-72
2021/08/08 12:32:33;;;;;;;3.58;1.45;;;22.70;56.90;;;;;;5036991;28;20079;-72
2021/08/08 12:35:05;;;;;;;3.72;1.05;;;22.70;56.80;;;;;;5020270;28;20017;-72
2021/08/08 12:37:31;;;;;;;1.52;0.65;;;22.80;56.80;;;;;;5005949;28;20395;-73
2021/08/08 12:40:17;;;;;;;8.50;1.33;;;23.00;56.40;;;;;;5021559;28;20022;-72
2021/08/08 12:42:43;;;;;;;2.93;0.90;;;23.10;55.70;;;;;;5037180;28;20111;-72